createdAt,value
2019-05-18T00:01:44.164Z,64.00
2019-05-18T00:04:13.239Z,64.00
2019-05-18T00:06:40.160Z,64.10
2019-05-18T00:09:06.302Z,64.30
2019-05-18T00:11:32.671Z,64.60
2019-05-18T00:13:58.751Z,64.80
2019-05-18T00:16:29.909Z,65.30
2019-05-18T00:18:55.916Z,64.40
2019-05-18T00:21:21.963Z,64.50
2019-05-18T00:23:47.971Z,64.40
2019-05-18T00:26:13.991Z,64.50
2019-05-18T00:28:41.821Z,64.50
2019-05-18T00:31:07.909Z,64.50
2019-05-18T00:33:33.958Z,64.60
2019-05-18T00:36:00.065Z,64.40
2019-05-18T00:38:26.071Z,64.30
2019-05-18T00:40:52.785Z,64.30
2019-05-18T00:43:19.051Z,64.40
2019-05-18T00:45:45.078Z,64.50
2019-05-18T00:48:11.220Z,64.60
2019-05-18T00:50:37.367Z,64.60
2019-05-18T00:53:03.398Z,65.00
2019-05-18T00:55:29.421Z,64.90
2019-05-18T00:57:55.456Z,64.60
2019-05-18T01:00:21.472Z,65.00
2019-05-18T01:02:47.496Z,64.70
2019-05-18T01:05:13.722Z,64.70
2019-05-18T01:07:39.735Z,65.20
2019-05-18T01:10:05.889Z,65.00
2019-05-18T01:12:32.238Z,64.80
2019-05-18T01:14:58.270Z,64.80
2019-05-18T01:17:25.866Z,64.80
2019-05-18T01:19:52.282Z,64.90
2019-05-18T01:22:18.346Z,64.80
2019-05-18T01:24:44.364Z,65.00
2019-05-18T01:27:10.467Z,65.10
2019-05-18T01:29:36.492Z,65.00
2019-05-18T01:32:02.849Z,64.90
2019-05-18T01:34:29.775Z,64.90
2019-05-18T01:36:55.797Z,64.90
2019-05-18T01:39:21.887Z,65.10
2019-05-18T01:41:48.953Z,65.10
2019-05-18T01:44:14.990Z,65.20
2019-05-18T01:46:41.011Z,65.00
2019-05-18T01:49:07.455Z,65.50
2019-05-18T01:51:33.460Z,65.40
2019-05-18T01:53:59.471Z,65.40
2019-05-18T01:56:25.628Z,65.70
2019-05-18T01:58:51.650Z,65.70
2019-05-18T02:01:17.660Z,66.00
2019-05-18T02:03:43.896Z,66.00
2019-05-18T02:06:13.421Z,65.90
2019-05-18T02:08:39.568Z,66.00
2019-05-18T02:11:05.619Z,66.10
2019-05-18T02:13:31.635Z,66.50
2019-05-18T02:15:57.647Z,66.30
2019-05-18T02:18:29.059Z,66.20
2019-05-18T02:20:51.619Z,66.00
2019-05-18T02:23:17.643Z,66.30
2019-05-18T02:25:43.684Z,66.10
2019-05-18T02:28:09.715Z,66.10
2019-05-18T02:30:35.768Z,66.00
2019-05-18T02:33:01.869Z,66.00
2019-05-18T02:35:27.975Z,66.00
2019-05-18T02:37:55.966Z,66.10
2019-05-18T02:40:22.177Z,66.20
2019-05-18T02:42:48.528Z,66.20
2019-05-18T02:45:33.642Z,66.20
2019-05-18T02:47:59.808Z,66.40
2019-05-18T02:50:25.819Z,66.20
2019-05-18T02:52:52.733Z,66.10
2019-05-18T02:55:18.749Z,66.20
2019-05-18T02:57:45.052Z,66.20
2019-05-18T03:00:11.215Z,66.80
2019-05-18T03:02:37.243Z,66.30
2019-05-18T03:05:06.267Z,66.10
2019-05-18T03:07:32.340Z,66.50
2019-05-18T03:09:58.339Z,66.50
2019-05-18T03:12:24.352Z,66.90
2019-05-18T03:14:50.464Z,66.90
2019-05-18T03:17:16.476Z,67.00
2019-05-18T03:19:42.764Z,67.30
2019-05-18T03:22:08.795Z,67.30
2019-05-18T03:24:34.809Z,67.90
2019-05-18T03:27:00.824Z,67.40
2019-05-18T03:29:26.844Z,68.00
2019-05-18T03:31:52.912Z,67.30
2019-05-18T03:34:19.401Z,67.30
2019-05-18T03:36:45.526Z,67.10
2019-05-18T03:39:11.541Z,66.90
2019-05-18T03:41:37.547Z,66.80
2019-05-18T03:44:03.836Z,66.80
2019-05-18T03:46:30.139Z,66.90
2019-05-18T03:48:56.157Z,66.70
2019-05-18T03:51:22.264Z,66.80
2019-05-18T03:53:48.282Z,66.80
2019-05-18T03:56:14.295Z,66.60
2019-05-18T03:58:40.341Z,66.70
2019-05-18T04:01:06.337Z,66.90
2019-05-18T04:03:32.609Z,67.00
2019-05-18T04:05:58.647Z,66.80
2019-05-18T04:08:24.659Z,66.60
2019-05-18T04:10:50.664Z,66.70
2019-05-18T04:13:16.800Z,66.60
2019-05-18T04:15:42.825Z,66.60
2019-05-18T04:18:08.824Z,66.70
2019-05-18T04:20:34.865Z,66.60
2019-05-18T04:23:00.872Z,66.60
2019-05-18T04:25:26.885Z,66.30
2019-05-18T04:27:53.021Z,66.20
2019-05-18T04:30:19.032Z,66.40
2019-05-18T04:32:45.084Z,66.50
2019-05-18T04:35:11.471Z,66.70
2019-05-18T04:37:37.550Z,66.30
2019-05-18T04:40:04.664Z,66.20
2019-05-18T04:42:31.271Z,66.00
2019-05-18T04:44:57.588Z,66.00
2019-05-18T04:47:23.588Z,66.10
2019-05-18T04:50:04.319Z,66.10
2019-05-18T04:52:17.528Z,66.40
2019-05-18T04:54:43.539Z,66.40
2019-05-18T04:57:09.951Z,66.70
2019-05-18T04:59:36.259Z,66.80
2019-05-18T05:02:02.307Z,66.60
2019-05-18T05:04:28.341Z,66.30
2019-05-18T05:06:54.347Z,66.50
2019-05-18T05:09:20.356Z,66.40
2019-05-18T05:11:46.462Z,66.30
2019-05-18T05:14:12.475Z,66.20
2019-05-18T05:16:38.494Z,65.90
2019-05-18T05:19:04.714Z,65.90
2019-05-18T05:21:30.776Z,66.00
2019-05-18T05:23:56.831Z,65.90
2019-05-18T05:26:23.201Z,65.60
2019-05-18T05:28:49.285Z,65.60
2019-05-18T05:31:15.295Z,65.60
2019-05-18T05:33:41.739Z,65.40
2019-05-18T05:36:08.214Z,64.60
2019-05-18T05:38:34.255Z,64.10
2019-05-18T05:41:00.395Z,63.20
2019-05-18T05:43:26.411Z,62.60
2019-05-18T05:45:52.428Z,62.40
2019-05-18T05:48:18.473Z,61.70
2019-05-18T05:50:44.499Z,61.80
2019-05-18T05:53:10.576Z,60.70
2019-05-18T05:55:36.650Z,60.20
2019-05-18T05:58:02.753Z,60.10
2019-05-18T06:00:28.769Z,60.00
2019-05-18T06:02:55.164Z,59.70
2019-05-18T06:05:21.295Z,59.20
2019-05-18T06:07:47.379Z,59.20
2019-05-18T06:10:13.416Z,59.10
2019-05-18T06:12:39.444Z,59.30
2019-05-18T06:15:06.659Z,59.20
2019-05-18T06:17:32.703Z,59.30
2019-05-18T06:19:58.711Z,59.00
2019-05-18T06:22:24.733Z,58.90
2019-05-18T06:24:50.758Z,58.80
2019-05-18T06:27:16.791Z,58.20
2019-05-18T06:29:42.812Z,58.30
2019-05-18T06:32:08.913Z,58.30
2019-05-18T06:34:34.976Z,57.90
2019-05-18T06:37:01.518Z,58.10
2019-05-18T06:39:27.694Z,57.60
2019-05-18T06:41:54.077Z,57.50
2019-05-18T06:44:20.086Z,57.30
2019-05-18T06:46:46.199Z,57.30
2019-05-18T06:49:12.244Z,57.30
2019-05-18T06:51:38.347Z,57.20
2019-05-18T06:54:05.271Z,56.90
2019-05-18T06:56:35.276Z,56.50
2019-05-18T06:59:04.725Z,56.40
2019-05-18T07:01:30.945Z,55.80
2019-05-18T07:03:56.955Z,55.80
2019-05-18T07:06:22.991Z,55.50
2019-05-18T07:08:49.335Z,55.20
2019-05-18T07:11:15.720Z,55.10
2019-05-18T07:13:41.803Z,55.20
2019-05-18T07:16:07.831Z,54.90
2019-05-18T07:18:34.144Z,54.70
2019-05-18T07:21:00.163Z,54.40
2019-05-18T07:23:26.315Z,54.30
2019-05-18T07:25:52.347Z,53.90
2019-05-18T07:28:18.419Z,53.80
2019-05-18T07:30:44.456Z,53.50
2019-05-18T07:33:10.526Z,53.40
2019-05-18T07:35:36.557Z,53.20
2019-05-18T07:38:02.954Z,52.80
2019-05-18T07:40:28.977Z,52.00
2019-05-18T07:42:55.092Z,51.60
2019-05-18T07:45:23.694Z,51.80
2019-05-18T07:47:49.727Z,51.50
2019-05-18T07:50:15.750Z,51.40
2019-05-18T07:52:41.932Z,50.80
2019-05-18T07:55:08.443Z,50.70
2019-05-18T07:57:34.459Z,50.80
2019-05-18T08:00:00.603Z,50.40
2019-05-18T08:02:31.465Z,50.50
2019-05-18T08:04:57.495Z,50.10
2019-05-18T08:07:23.654Z,48.70
2019-05-18T08:09:49.690Z,47.60
2019-05-18T08:12:20.479Z,46.80
2019-05-18T08:14:52.638Z,46.60
2019-05-18T08:17:18.656Z,46.40
2019-05-18T08:19:44.673Z,47.00
2019-05-18T08:22:10.728Z,46.80
2019-05-18T08:24:36.734Z,45.40
2019-05-18T08:27:03.079Z,43.80
2019-05-18T08:29:29.142Z,43.70
2019-05-18T08:31:55.176Z,43.40
2019-05-18T08:34:21.243Z,43.80
2019-05-18T08:36:47.296Z,44.10
2019-05-18T08:39:18.286Z,43.00
2019-05-18T08:41:44.302Z,42.30
2019-05-18T08:44:10.350Z,41.90
2019-05-18T08:46:36.358Z,41.60
2019-05-18T08:49:02.458Z,40.60
2019-05-18T08:51:28.490Z,39.90
2019-05-18T08:53:54.519Z,39.80
2019-05-18T08:56:20.549Z,40.70
2019-05-18T08:58:46.588Z,40.80
2019-05-18T09:01:12.618Z,41.30
2019-05-18T09:03:38.631Z,40.90
2019-05-18T09:06:06.955Z,40.70
2019-05-18T09:08:32.971Z,39.70
2019-05-18T09:10:59.019Z,38.60
2019-05-18T09:13:25.091Z,38.80
2019-05-18T09:15:51.216Z,37.90
2019-05-18T09:18:17.304Z,38.20
2019-05-18T09:20:43.482Z,38.90
2019-05-18T09:23:09.587Z,38.40
2019-05-18T09:25:35.635Z,37.60
2019-05-18T09:28:01.673Z,37.50
2019-05-18T09:30:27.723Z,37.20
2019-05-18T09:32:53.847Z,37.10
2019-05-18T09:35:21.062Z,36.80
2019-05-18T09:37:47.115Z,35.90
2019-05-18T09:40:14.858Z,34.70
2019-05-18T09:42:41.027Z,34.20
2019-05-18T09:45:08.338Z,34.80
2019-05-18T09:47:34.349Z,34.90
2019-05-18T09:50:00.374Z,34.40
2019-05-18T09:52:43.644Z,35.10
2019-05-18T09:54:54.323Z,35.20
2019-05-18T09:57:20.359Z,34.90
2019-05-18T09:59:46.448Z,35.40
2019-05-18T10:02:12.741Z,35.20
2019-05-18T10:04:38.853Z,33.40
2019-05-18T10:07:07.571Z,33.50
2019-05-18T10:09:39.274Z,32.00
2019-05-18T10:12:01.854Z,32.50
2019-05-18T10:14:27.877Z,31.20
2019-05-18T10:16:54.690Z,31.40
2019-05-18T10:19:20.743Z,31.20
2019-05-18T10:21:46.761Z,31.20
2019-05-18T10:24:12.775Z,31.40
2019-05-18T10:26:38.884Z,31.80
2019-05-18T10:29:04.903Z,30.50
2019-05-18T10:31:30.936Z,30.20
2019-05-18T10:33:58.860Z,30.90
2019-05-18T10:36:26.957Z,29.90
2019-05-18T10:38:57.813Z,29.20
2019-05-18T10:41:24.588Z,28.90
2019-05-18T10:43:53.754Z,28.60
2019-05-18T10:46:19.843Z,26.80
2019-05-18T10:48:45.881Z,27.10
2019-05-18T10:51:11.961Z,27.80
2019-05-18T10:53:37.983Z,27.30
2019-05-18T10:56:04.897Z,27.50
2019-05-18T10:58:33.426Z,27.00
2019-05-18T11:00:59.713Z,24.60
2019-05-18T11:03:25.842Z,22.00
2019-05-18T11:05:51.869Z,21.60
2019-05-18T11:08:17.945Z,21.20
2019-05-18T11:10:44.248Z,19.30
2019-05-18T11:13:10.291Z,14.70
2019-05-18T11:15:36.339Z,12.40
2019-05-18T11:18:02.554Z,11.70
2019-05-18T11:20:28.585Z,10.40
2019-05-18T11:22:57.299Z,10.10
2019-05-18T11:25:23.406Z,10.90
2019-05-18T11:27:49.428Z,10.70
2019-05-18T11:30:17.356Z,9.70
2019-05-18T11:32:43.379Z,10.20
2019-05-18T11:35:09.460Z,10.70
2019-05-18T11:37:35.475Z,11.00
2019-05-18T11:40:03.744Z,10.20
2019-05-18T11:42:30.092Z,9.70
2019-05-18T11:44:56.110Z,9.80
2019-05-18T11:47:22.573Z,11.30
2019-05-18T11:49:48.711Z,13.60
2019-05-18T11:52:14.710Z,15.40
2019-05-18T11:54:40.746Z,14.70
2019-05-18T11:57:06.786Z,13.00
2019-05-18T11:59:32.912Z,12.70
2019-05-18T12:01:59.217Z,13.70
2019-05-18T12:04:27.904Z,14.50
2019-05-18T12:06:53.941Z,15.10
2019-05-18T12:09:20.029Z,15.80
2019-05-18T12:11:46.156Z,16.90
2019-05-18T12:14:13.313Z,15.30
2019-05-18T12:16:39.450Z,12.90
2019-05-18T12:19:07.187Z,12.20
2019-05-18T12:21:33.246Z,12.60
2019-05-18T12:24:14.119Z,13.80
2019-05-18T12:26:32.229Z,14.50
2019-05-18T12:28:58.269Z,14.80
2019-05-18T12:31:24.315Z,15.70
2019-05-18T12:33:50.319Z,13.30
2019-05-18T12:36:16.390Z,11.90
2019-05-18T12:38:42.799Z,12.00
2019-05-18T12:41:09.515Z,10.80
2019-05-18T12:43:36.002Z,9.20
2019-05-18T12:46:02.172Z,8.60
2019-05-18T12:48:28.190Z,11.20
2019-05-18T12:50:54.202Z,11.40
2019-05-18T12:53:20.251Z,10.40
2019-05-18T12:55:46.267Z,9.30
2019-05-18T12:58:12.286Z,8.40
2019-05-18T13:00:38.407Z,7.90
2019-05-18T13:03:04.431Z,7.50
2019-05-18T13:05:30.481Z,5.80
2019-05-18T13:07:56.794Z,6.10
2019-05-18T13:10:22.835Z,5.20
2019-05-18T13:12:48.847Z,4.80
2019-05-18T13:15:16.874Z,4.60
2019-05-18T13:17:42.891Z,5.60
2019-05-18T13:20:09.883Z,5.70
2019-05-18T13:22:36.949Z,5.00
2019-05-18T13:25:04.356Z,4.20
2019-05-18T13:27:39.518Z,4.00
2019-05-18T13:29:58.674Z,3.50
2019-05-18T13:32:24.705Z,3.50
2019-05-18T13:34:50.775Z,3.10
2019-05-18T13:37:17.022Z,3.00
2019-05-18T13:39:43.039Z,3.80
2019-05-18T13:42:09.058Z,3.00
2019-05-18T13:44:38.088Z,3.00
2019-05-18T13:47:04.088Z,2.60
2019-05-18T13:49:30.106Z,2.40
2019-05-18T13:51:56.226Z,2.30
2019-05-18T13:54:22.235Z,2.00
2019-05-18T13:56:48.260Z,2.20
2019-05-18T13:59:14.374Z,2.00
2019-05-18T14:01:40.391Z,2.10
2019-05-18T14:04:06.403Z,2.30
2019-05-18T14:06:32.552Z,2.50
2019-05-18T14:08:58.576Z,2.70
2019-05-18T14:11:24.880Z,2.70
2019-05-18T14:13:51.004Z,3.30
2019-05-18T14:16:17.019Z,4.20
2019-05-18T14:18:43.355Z,5.20
2019-05-18T14:21:09.553Z,5.80
2019-05-18T14:23:35.547Z,5.50
2019-05-18T14:26:01.563Z,4.70
2019-05-18T14:28:27.601Z,4.50
2019-05-18T14:30:53.611Z,3.50
2019-05-18T14:33:19.642Z,3.80
2019-05-18T14:35:45.750Z,3.40
2019-05-18T14:38:11.772Z,3.40
2019-05-18T14:40:37.851Z,4.00
2019-05-18T14:43:05.877Z,4.10
2019-05-18T14:45:33.487Z,3.80
2019-05-18T14:47:59.547Z,3.60
2019-05-18T14:50:25.979Z,3.60
2019-05-18T14:52:51.996Z,3.60
2019-05-18T14:55:32.406Z,3.30
2019-05-18T14:57:47.288Z,3.20
2019-05-18T15:00:13.411Z,3.60
2019-05-18T15:02:39.431Z,5.30
2019-05-18T15:05:09.024Z,5.60
2019-05-18T15:07:35.035Z,5.30
2019-05-18T15:10:01.052Z,5.50
2019-05-18T15:12:27.096Z,5.60
2019-05-18T15:14:53.124Z,5.60
2019-05-18T15:17:19.219Z,5.90
2019-05-18T15:19:45.313Z,6.30
2019-05-18T15:22:11.356Z,7.50
2019-05-18T15:24:37.390Z,9.00
2019-05-18T15:27:03.496Z,9.80
2019-05-18T15:29:29.557Z,10.80
2019-05-18T15:31:55.570Z,12.30
2019-05-18T15:34:21.657Z,14.00
2019-05-18T15:36:47.704Z,15.80
2019-05-18T15:39:13.724Z,17.00
2019-05-18T15:41:39.883Z,18.00
2019-05-18T15:44:05.907Z,19.30
2019-05-18T15:46:32.544Z,19.50
2019-05-18T15:48:58.588Z,19.10
2019-05-18T15:51:31.911Z,17.80
2019-05-18T15:53:58.019Z,16.90
2019-05-18T15:56:24.148Z,17.60
2019-05-18T15:58:50.163Z,18.60
2019-05-18T16:01:16.196Z,19.30
2019-05-18T16:03:42.259Z,20.30
2019-05-18T16:06:08.311Z,19.00
2019-05-18T16:08:34.368Z,17.10
2019-05-18T16:11:01.347Z,15.80
2019-05-18T16:13:29.290Z,14.90
2019-05-18T16:15:55.653Z,14.30
2019-05-18T16:18:21.670Z,13.60
2019-05-18T16:20:50.217Z,13.50
2019-05-18T16:23:16.231Z,13.70
2019-05-18T16:25:43.424Z,14.60
2019-05-18T16:28:09.451Z,15.10
2019-05-18T16:30:35.484Z,15.70
2019-05-18T16:33:01.651Z,17.00
2019-05-18T16:35:27.812Z,17.80
2019-05-18T16:37:53.949Z,18.20
2019-05-18T16:40:20.040Z,19.30
2019-05-18T16:42:46.743Z,20.30
2019-05-18T16:45:13.037Z,21.20
2019-05-18T16:47:45.414Z,21.60
2019-05-18T16:50:11.448Z,22.60
2019-05-18T16:52:37.489Z,23.20
2019-05-18T16:55:06.671Z,23.50
2019-05-18T16:57:32.698Z,24.40
2019-05-18T16:59:58.704Z,24.60
2019-05-18T17:02:31.633Z,25.20
2019-05-18T17:04:52.676Z,25.60
2019-05-18T17:07:18.689Z,26.40
2019-05-18T17:09:44.827Z,27.10
2019-05-18T17:12:10.847Z,27.30
2019-05-18T17:14:36.872Z,27.90
2019-05-18T17:17:03.241Z,28.20
2019-05-18T17:19:29.283Z,28.10
2019-05-18T17:21:55.584Z,28.60
2019-05-18T17:24:21.623Z,28.70
2019-05-18T17:26:52.832Z,29.10
2019-05-18T17:29:15.554Z,29.20
2019-05-18T17:31:41.669Z,29.60
2019-05-18T17:34:07.757Z,29.60
2019-05-18T17:36:33.861Z,29.70
2019-05-18T17:39:00.044Z,29.80
2019-05-18T17:41:26.057Z,29.80
2019-05-18T17:43:52.089Z,30.10
2019-05-18T17:46:18.570Z,30.60
2019-05-18T17:48:45.000Z,30.50
2019-05-18T17:51:11.022Z,31.10
2019-05-18T17:53:38.172Z,31.00
2019-05-18T17:56:04.196Z,31.00
2019-05-18T17:58:30.208Z,32.60
2019-05-18T18:00:56.251Z,32.10
2019-05-18T18:03:22.268Z,32.00
2019-05-18T18:05:48.294Z,32.80
2019-05-18T18:08:14.612Z,32.90
2019-05-18T18:10:40.836Z,33.80
2019-05-18T18:13:09.523Z,34.50
2019-05-18T18:15:35.159Z,35.30
2019-05-18T18:18:01.224Z,36.00
2019-05-18T18:20:27.249Z,36.80
2019-05-18T18:22:53.414Z,37.30
2019-05-18T18:25:19.419Z,38.00
2019-05-18T18:27:45.435Z,38.50
2019-05-18T18:30:11.463Z,38.90
2019-05-18T18:32:37.557Z,39.40
2019-05-18T18:35:04.299Z,39.70
2019-05-18T18:37:30.451Z,40.10
2019-05-18T18:39:56.491Z,40.50
2019-05-18T18:42:22.607Z,40.70
2019-05-18T18:44:48.660Z,41.20
2019-05-18T18:47:14.690Z,41.40
2019-05-18T18:49:40.996Z,41.40
2019-05-18T18:52:07.271Z,42.20
2019-05-18T18:54:33.304Z,42.40
2019-05-18T18:56:59.322Z,43.00
2019-05-18T18:59:25.474Z,43.60
2019-05-18T19:01:51.511Z,43.90
2019-05-18T19:04:17.639Z,44.10
2019-05-18T19:06:43.697Z,44.60
2019-05-18T19:09:09.867Z,44.60
2019-05-18T19:11:35.882Z,45.10
2019-05-18T19:14:03.840Z,45.30
2019-05-18T19:16:29.972Z,45.50
2019-05-18T19:18:56.075Z,45.80
2019-05-18T19:21:22.114Z,46.10
2019-05-18T19:23:48.146Z,46.00
2019-05-18T19:26:14.216Z,46.20
2019-05-18T19:28:40.578Z,46.40
2019-05-18T19:31:06.563Z,46.80
2019-05-18T19:33:32.582Z,46.90
2019-05-18T19:35:58.946Z,46.90
2019-05-18T19:38:25.019Z,47.40
2019-05-18T19:40:51.033Z,47.40
2019-05-18T19:43:17.381Z,47.60
2019-05-18T19:45:43.639Z,47.90
2019-05-18T19:48:09.659Z,48.10
2019-05-18T19:50:37.140Z,48.50
2019-05-18T19:53:03.159Z,48.20
2019-05-18T19:55:29.183Z,48.70
2019-05-18T19:58:08.091Z,48.70
2019-05-18T20:00:23.155Z,48.70
2019-05-18T20:02:49.170Z,48.70
2019-05-18T20:05:15.396Z,48.50
2019-05-18T20:07:41.402Z,48.70
2019-05-18T20:10:07.435Z,48.50
2019-05-18T20:12:33.519Z,48.80
2019-05-18T20:15:11.787Z,48.80
2019-05-18T20:17:43.471Z,49.10
2019-05-18T20:20:09.493Z,49.50
2019-05-18T20:22:35.511Z,49.80
2019-05-18T20:25:01.558Z,50.00
2019-05-18T20:27:27.586Z,50.30
2019-05-18T20:29:53.599Z,50.40
2019-05-18T20:32:19.667Z,50.40
2019-05-18T20:34:45.746Z,50.40
2019-05-18T20:37:11.815Z,50.60
2019-05-18T20:39:37.918Z,50.80
2019-05-18T20:42:03.976Z,50.90
2019-05-18T20:44:30.330Z,51.20
2019-05-18T20:46:56.499Z,51.20
2019-05-18T20:49:22.543Z,51.70
2019-05-18T20:51:51.024Z,51.60
2019-05-18T20:54:17.405Z,51.90
2019-05-18T20:56:43.411Z,52.00
2019-05-18T20:59:09.422Z,52.10
2019-05-18T21:01:35.766Z,52.20
2019-05-18T21:04:01.799Z,52.20
2019-05-18T21:06:27.896Z,52.40
2019-05-18T21:08:53.941Z,52.60
2019-05-18T21:11:19.939Z,52.90
2019-05-18T21:13:45.952Z,53.00
2019-05-18T21:16:12.279Z,53.20
2019-05-18T21:18:38.371Z,53.20
2019-05-18T21:21:07.275Z,53.30
2019-05-18T21:23:33.391Z,53.60
2019-05-18T21:25:59.428Z,53.70
2019-05-18T21:28:25.719Z,53.60
2019-05-18T21:30:51.791Z,54.00
2019-05-18T21:33:17.802Z,54.10
2019-05-18T21:35:43.827Z,54.30
2019-05-18T21:38:10.073Z,54.70
2019-05-18T21:40:36.142Z,54.90
2019-05-18T21:43:02.168Z,55.10
2019-05-18T21:45:28.578Z,55.40
2019-05-18T21:47:54.920Z,55.60
2019-05-18T21:50:23.854Z,55.50
2019-05-18T21:52:50.467Z,55.70
2019-05-18T21:55:18.714Z,55.80
2019-05-18T21:57:46.654Z,56.00
2019-05-18T22:00:12.767Z,56.20
2019-05-18T22:02:43.449Z,56.20
2019-05-18T22:05:12.126Z,56.30
2019-05-18T22:07:38.237Z,56.70
2019-05-18T22:10:05.243Z,57.10
2019-05-18T22:12:31.256Z,57.00
2019-05-18T22:14:57.398Z,57.20
2019-05-18T22:17:23.408Z,57.30
2019-05-18T22:19:49.431Z,57.30
2019-05-18T22:22:15.471Z,57.50
2019-05-18T22:24:41.491Z,57.90
2019-05-18T22:27:07.501Z,57.80
2019-05-18T22:29:33.648Z,57.90
2019-05-18T22:31:59.753Z,58.10
2019-05-18T22:34:33.781Z,58.30
2019-05-18T22:37:11.697Z,58.50
2019-05-18T22:39:37.096Z,58.60
2019-05-18T22:42:09.307Z,58.80
2019-05-18T22:44:35.432Z,59.10
2019-05-18T22:47:04.352Z,59.10
2019-05-18T22:49:30.401Z,59.60
2019-05-18T22:51:56.648Z,59.70
2019-05-18T22:54:23.211Z,59.90
2019-05-18T22:56:49.232Z,60.10
2019-05-18T22:59:15.280Z,60.30
2019-05-18T23:01:41.297Z,60.30
2019-05-18T23:04:07.631Z,60.40
2019-05-18T23:06:33.757Z,60.40
2019-05-18T23:09:00.071Z,60.90
2019-05-18T23:11:26.196Z,60.80
2019-05-18T23:13:53.267Z,60.80
2019-05-18T23:16:19.297Z,60.90
2019-05-18T23:18:56.502Z,60.90
2019-05-18T23:21:13.412Z,61.00
2019-05-18T23:23:39.421Z,60.90
2019-05-18T23:26:05.449Z,61.80
2019-05-18T23:28:31.493Z,61.50
2019-05-18T23:30:57.513Z,61.60
2019-05-18T23:33:23.510Z,61.80
2019-05-18T23:35:49.549Z,61.80
2019-05-18T23:38:15.811Z,61.90
2019-05-18T23:40:41.847Z,62.20
2019-05-18T23:43:07.867Z,62.40
2019-05-18T23:45:36.444Z,62.30
2019-05-18T23:48:02.482Z,62.20
2019-05-18T23:50:38.036Z,62.30
2019-05-18T23:53:04.200Z,62.40
2019-05-18T23:55:33.052Z,62.50
2019-05-18T23:58:04.887Z,62.80
